Holland, NY

8:21 AM EDT on September 02, 2014 (GMT -0400)
KNYHOLLA3 | Change Station
CLOSE
Current Station
Personal Weather Station
Location: Colden, NY
Elevation: 1715 ft
Nearby Weather Stations

Elev 1715 ft 42.63 °N, 78.63 °W | Updated 5 minutes ago

Mostly Cloudy
Mostly Cloudy
70.5 °F
Feels Like 70.5 °F
N
9.0
Wind Variable Wind from West
Gusts 19.0 mph

Today
High -- | Low -- °F
--% Chance of Precip.
Yesterday
High -- | Low -- °F
Precip. -- in
6:40 AM 7:46 PM
Waxing Crescent, 51% visible
Pressure 29.88 in
Visibility 8.0 miles
Clouds Scattered Clouds 900 ft
Scattered Clouds 16000 ft
Mostly Cloudy 20000 ft
Mostly Cloudy 25000 ft
Dew Point 69 °F
Humidity 94%
Rainfall 0.05 in
Snow Depth Not available.
UV 1 out of 12
Pollen 7.20 out of 12
Ozone Good
PM2.5 Good
Flu Activity Not available.
SPECI KBUF 021212Z 23011KT 8SM SCT009 SCT160 BKN200 BKN250 23/21 A2988 RMK AO2 T02330211

More Conditions Fewer Conditions

Pressure 29.88 in
Visibility 8.0 miles
Clouds Scattered Clouds 900 ft
Scattered Clouds 16000 ft
Mostly Cloudy 20000 ft
Mostly Cloudy 25000 ft
Dew Point 69 °F
Humidity 94%
Rainfall 0.05 in
Snow Depth Not available.
UV 1 out of 12
Pollen 7.20 out of 12
Ozone Good
PM2.5 Good
Flu Activity Not available.
SPECI KBUF 021212Z 23011KT 8SM SCT009 SCT160 BKN200 BKN250 23/21 A2988 RMK AO2 T02330211

More Conditions Fewer Conditions

10-Day Weather Forecast

Almanac

Astronomy

Sep. 02, 2014 Rise Set
Actual Time 6:40 AM EDT 7:46 PM EDT
Civil Twilight 6:11 AM EDT 8:15 PM EDT
Nautical Twilight 5:36 AM EDT 8:50 PM EDT
Astronomical Twilight 5:00 AM EDT 9:26 PM EDT
Moon 2:31 PM EDT No Moon Set
Length of Visible Light 14h 04m
Length of Day
13h 06m
Tomorrow will be 2m 47s shorter.
Waxing Crescent, 51% of the Moon is Illuminated
Today
Waxing Crescent
Sep 8
Full
Sep 15
Last Quarter
Sep 24
New
Oct 1
First Quarter

Today's Extremes

State Highs State Lows

Community

WunderPhotos

Upload Photos

1,749,639 photos uploaded!

WunderBlogs® & News

By Dr. Jeff Masters
Director of Meteorology, Weather Underground
By Kari Strenfel
Meteorologist, Weather Underground
By Christopher C. Burt
Weather Historian, Weather Underground
September 2, 2014
September 2, 2014
September 2, 2014

Nearby

Air Quality

  Air Quality AQ Index Pollutant
Yesterday Good
OZONE
Yesterday Good
PM2.5
Current Good
PM2.5
Current Good
OZONE
Tuesday Good
PM2.5
Tuesday Good
OZONE

Snow Depth

Station Depth Elevation
No new snow has been reported.

Earthquake Activity

City Distance Mag. Time & Date
No recent earthquake activity has been reported nearby.
Minimum magnitude displayed is 2.5.

Coastal Water Temperatures

Place Temperature
Buffalo, NY 73.9 °F

Nearby Weather Stations